createdAt,value
2019-01-18T00:00:13.010Z,0.00
2019-01-18T00:01:12.999Z,0.00
2019-01-18T00:02:13.031Z,0.00
2019-01-18T00:03:13.003Z,0.00
2019-01-18T00:04:12.965Z,0.00
2019-01-18T00:05:12.956Z,0.00
2019-01-18T00:06:13.010Z,0.00
2019-01-18T00:07:12.962Z,0.00
2019-01-18T00:08:12.917Z,0.00
2019-01-18T00:09:12.907Z,0.00
2019-01-18T00:10:12.897Z,0.00
2019-01-18T00:11:12.885Z,0.00
2019-01-18T00:12:12.878Z,0.00
2019-01-18T00:13:12.881Z,0.00
2019-01-18T00:14:12.854Z,0.00
2019-01-18T00:15:12.841Z,0.00
2019-01-18T00:16:12.832Z,0.00
2019-01-18T00:17:12.823Z,0.00
2019-01-18T00:18:12.828Z,0.00
2019-01-18T00:19:12.798Z,0.00
2019-01-18T00:20:12.791Z,0.00
2019-01-18T00:21:12.774Z,0.00
2019-01-18T00:22:12.762Z,0.00
2019-01-18T00:23:12.771Z,0.00
2019-01-18T00:24:12.739Z,0.00
2019-01-18T00:25:12.731Z,0.00
2019-01-18T00:26:12.718Z,0.00
2019-01-18T00:27:12.716Z,0.00
2019-01-18T00:28:12.716Z,0.00
2019-01-18T00:29:12.686Z,0.00
2019-01-18T00:30:12.677Z,0.00
2019-01-18T00:31:12.665Z,0.00
2019-01-18T00:32:12.697Z,0.00
2019-01-18T00:33:12.664Z,0.00
2019-01-18T00:34:12.636Z,0.00
2019-01-18T00:35:12.619Z,0.00
2019-01-18T00:36:12.609Z,0.00
2019-01-18T00:37:12.595Z,0.00
2019-01-18T00:38:12.620Z,0.00
2019-01-18T00:39:12.575Z,0.00
2019-01-18T00:40:12.563Z,0.00
2019-01-18T00:41:12.551Z,0.00
2019-01-18T00:42:12.544Z,0.00
2019-01-18T00:43:12.528Z,0.00
2019-01-18T00:44:12.539Z,0.00
2019-01-18T00:45:12.507Z,0.00
2019-01-18T00:46:12.495Z,0.00
2019-01-18T00:47:12.485Z,0.00
2019-01-18T00:48:12.473Z,0.00
2019-01-18T00:49:12.485Z,0.00
2019-01-18T00:50:12.452Z,0.00
2019-01-18T00:51:12.448Z,0.00
2019-01-18T00:52:12.437Z,0.00
2019-01-18T00:53:12.491Z,0.00
2019-01-18T00:54:12.427Z,0.00
2019-01-18T00:55:12.395Z,0.00
2019-01-18T00:56:12.390Z,0.00
2019-01-18T00:57:12.374Z,0.00
2019-01-18T00:58:12.363Z,0.00
2019-01-18T00:59:12.371Z,0.00
2019-01-18T01:00:12.345Z,0.00
2019-01-18T01:01:12.372Z,0.00
2019-01-18T01:02:12.320Z,0.00
2019-01-18T01:03:12.306Z,0.00
2019-01-18T01:04:12.334Z,0.00
2019-01-18T01:05:12.313Z,0.00
2019-01-18T01:06:12.280Z,0.00
2019-01-18T01:07:12.262Z,0.00
2019-01-18T01:08:12.251Z,0.00
2019-01-18T01:09:12.241Z,0.00
2019-01-18T01:10:12.269Z,0.00
2019-01-18T01:11:12.216Z,0.00
2019-01-18T01:12:12.206Z,0.00
2019-01-18T01:13:12.194Z,0.00
2019-01-18T01:14:12.183Z,0.00
2019-01-18T01:15:12.190Z,0.00
2019-01-18T01:16:12.161Z,0.00
2019-01-18T01:17:12.149Z,0.00
2019-01-18T01:18:12.143Z,0.00
2019-01-18T01:19:12.128Z,0.00
2019-01-18T01:20:12.138Z,0.00
2019-01-18T01:21:12.108Z,0.00
2019-01-18T01:22:12.093Z,0.00
2019-01-18T01:23:12.085Z,0.00
2019-01-18T01:24:12.070Z,0.00
2019-01-18T01:25:12.080Z,0.00
2019-01-18T01:26:12.048Z,0.00
2019-01-18T01:27:12.037Z,0.00
2019-01-18T01:28:12.030Z,0.00
2019-01-18T01:29:12.014Z,0.00
2019-01-18T01:30:12.025Z,0.00
2019-01-18T01:31:11.993Z,0.00
2019-01-18T01:32:11.982Z,0.00
2019-01-18T01:33:11.970Z,0.00
2019-01-18T01:34:11.959Z,0.00
2019-01-18T01:35:12.003Z,0.00
2019-01-18T01:36:11.941Z,0.00
2019-01-18T01:37:11.927Z,0.00
2019-01-18T01:38:11.914Z,0.00
2019-01-18T01:39:11.902Z,0.00
2019-01-18T01:40:11.895Z,0.00
2019-01-18T01:41:11.922Z,0.00
2019-01-18T01:42:11.871Z,0.00
2019-01-18T01:43:11.859Z,0.00
2019-01-18T01:44:11.848Z,0.00
2019-01-18T01:45:11.836Z,0.00
2019-01-18T01:46:11.845Z,0.00
2019-01-18T01:47:11.814Z,0.00
2019-01-18T01:48:11.803Z,0.00
2019-01-18T01:49:11.792Z,0.00
2019-01-18T01:50:11.783Z,0.00
2019-01-18T01:51:11.821Z,0.00
2019-01-18T01:52:11.784Z,0.00
2019-01-18T01:53:11.749Z,0.00
2019-01-18T01:54:11.738Z,0.00
2019-01-18T01:55:11.750Z,0.00
2019-01-18T01:56:11.734Z,0.00
2019-01-18T01:57:11.701Z,0.00
2019-01-18T01:58:11.690Z,0.00
2019-01-18T01:59:11.679Z,0.00
2019-01-18T02:00:11.668Z,0.00
2019-01-18T02:01:11.678Z,0.00
2019-01-18T02:02:11.648Z,0.00
2019-01-18T02:03:11.635Z,0.00
2019-01-18T02:04:11.626Z,0.00
2019-01-18T02:05:11.613Z,0.00
2019-01-18T02:06:11.618Z,0.00
2019-01-18T02:07:11.589Z,0.00
2019-01-18T02:08:11.580Z,0.00
2019-01-18T02:09:11.569Z,0.00
2019-01-18T02:10:11.569Z,0.00
2019-01-18T02:11:11.616Z,0.00
2019-01-18T02:12:11.538Z,0.00
2019-01-18T02:13:11.529Z,0.00
2019-01-18T02:14:11.511Z,0.00
2019-01-18T02:15:11.503Z,0.00
2019-01-18T02:16:11.492Z,0.00
2019-01-18T02:17:11.497Z,0.00
2019-01-18T02:18:11.467Z,0.00
2019-01-18T02:19:11.455Z,0.00
2019-01-18T02:20:11.444Z,0.00
2019-01-18T02:21:11.433Z,0.00
2019-01-18T02:22:11.438Z,0.00
2019-01-18T02:23:11.413Z,0.00
2019-01-18T02:24:11.399Z,0.00
2019-01-18T02:25:11.388Z,0.00
2019-01-18T02:26:11.377Z,0.00
2019-01-18T02:27:11.382Z,0.00
2019-01-18T02:28:11.356Z,0.00
2019-01-18T02:29:11.346Z,0.00
2019-01-18T02:30:11.337Z,0.00
2019-01-18T02:31:11.322Z,0.00
2019-01-18T02:32:11.327Z,0.00
2019-01-18T02:33:11.300Z,0.00
2019-01-18T02:34:11.289Z,0.00
2019-01-18T02:35:11.305Z,0.00
2019-01-18T02:36:11.272Z,0.00
2019-01-18T02:37:11.280Z,0.00
2019-01-18T02:38:11.246Z,0.00
2019-01-18T02:39:11.232Z,0.00
2019-01-18T02:40:11.226Z,0.00
2019-01-18T02:41:11.211Z,0.00
2019-01-18T02:42:11.217Z,0.00
2019-01-18T02:43:11.188Z,0.00
2019-01-18T02:44:11.178Z,0.00
2019-01-18T02:45:11.164Z,0.00
2019-01-18T02:46:11.154Z,0.00
2019-01-18T02:47:11.173Z,0.00
2019-01-18T02:48:11.141Z,0.00
2019-01-18T02:49:11.122Z,0.00
2019-01-18T02:50:11.108Z,0.00
2019-01-18T02:51:11.097Z,0.00
2019-01-18T02:52:11.087Z,0.00
2019-01-18T02:53:11.091Z,0.00
2019-01-18T02:54:11.063Z,0.00
2019-01-18T02:55:11.122Z,0.00
2019-01-18T02:56:11.045Z,0.00
2019-01-18T02:57:11.031Z,0.00
2019-01-18T02:58:11.037Z,0.00
2019-01-18T02:59:11.015Z,0.00
2019-01-18T03:00:11.001Z,0.00
2019-01-18T03:01:11.057Z,0.00
2019-01-18T03:02:10.983Z,0.00
2019-01-18T03:03:10.980Z,0.00
2019-01-18T03:04:10.952Z,0.00
2019-01-18T03:05:10.942Z,0.00
2019-01-18T03:06:10.958Z,0.00
2019-01-18T03:07:10.947Z,0.00
2019-01-18T03:08:10.956Z,0.00
2019-01-18T03:09:10.933Z,0.00
2019-01-18T03:10:10.887Z,0.00
2019-01-18T03:11:10.876Z,0.00
2019-01-18T03:12:10.885Z,0.00
2019-01-18T03:13:10.871Z,0.00
2019-01-18T03:14:10.859Z,0.00
2019-01-18T03:15:10.829Z,0.00
2019-01-18T03:16:10.885Z,0.00
2019-01-18T03:17:10.809Z,0.00
2019-01-18T03:18:10.821Z,0.00
2019-01-18T03:19:10.785Z,0.00
2019-01-18T03:20:10.774Z,0.00
2019-01-18T03:21:10.766Z,0.00
2019-01-18T03:22:10.756Z,0.00
2019-01-18T03:23:10.754Z,0.00
2019-01-18T03:24:10.746Z,0.00
2019-01-18T03:25:10.725Z,0.00
2019-01-18T03:26:10.707Z,0.00
2019-01-18T03:27:10.695Z,0.00
2019-01-18T03:28:10.705Z,0.00
2019-01-18T03:29:10.698Z,0.00
2019-01-18T03:30:18.972Z,0.00
2019-01-18T03:31:10.713Z,0.00
2019-01-18T03:32:10.668Z,0.00
2019-01-18T03:33:10.633Z,0.00
2019-01-18T03:34:10.637Z,0.00
2019-01-18T03:35:10.832Z,0.00
2019-01-18T03:36:10.705Z,0.00
2019-01-18T03:37:10.703Z,0.00
2019-01-18T03:38:10.571Z,0.00
2019-01-18T03:39:10.621Z,0.00
2019-01-18T03:40:10.578Z,0.00
2019-01-18T03:41:10.587Z,0.00
2019-01-18T03:42:10.542Z,0.00
2019-01-18T03:43:10.533Z,0.00
2019-01-18T03:44:10.685Z,0.00
2019-01-18T03:45:10.617Z,0.00
2019-01-18T03:46:10.483Z,0.00
2019-01-18T03:47:10.472Z,0.00
2019-01-18T03:48:10.464Z,0.00
2019-01-18T03:49:10.518Z,0.00
2019-01-18T03:50:10.448Z,0.00
2019-01-18T03:51:10.432Z,0.00
2019-01-18T03:52:10.421Z,0.00
2019-01-18T03:53:10.405Z,0.00
2019-01-18T03:54:10.426Z,0.00
2019-01-18T03:55:10.386Z,0.00
2019-01-18T03:56:10.375Z,0.00
2019-01-18T03:57:10.365Z,0.00
2019-01-18T03:58:10.349Z,0.00
2019-01-18T03:59:10.371Z,0.00
2019-01-18T04:00:10.351Z,0.00
2019-01-18T04:01:10.324Z,0.00
2019-01-18T04:02:10.307Z,0.00
2019-01-18T04:03:10.298Z,0.00
2019-01-18T04:04:10.289Z,0.00
2019-01-18T04:05:10.297Z,0.00
2019-01-18T04:06:10.261Z,0.00
2019-01-18T04:07:10.248Z,0.00
2019-01-18T04:08:10.238Z,0.00
2019-01-18T04:09:10.230Z,0.00
2019-01-18T04:10:10.236Z,0.00
2019-01-18T04:11:10.297Z,0.00
2019-01-18T04:12:10.193Z,0.00
2019-01-18T04:13:10.185Z,0.00
2019-01-18T04:14:10.171Z,0.00
2019-01-18T04:15:10.207Z,0.00
2019-01-18T04:16:10.151Z,0.00
2019-01-18T04:17:10.137Z,0.00
2019-01-18T04:18:10.129Z,0.00
2019-01-18T04:19:10.115Z,0.00
2019-01-18T04:20:10.104Z,0.00
2019-01-18T04:21:10.112Z,0.00
2019-01-18T04:22:10.082Z,0.00
2019-01-18T04:23:10.072Z,0.00
2019-01-18T04:24:10.060Z,0.00
2019-01-18T04:25:10.055Z,0.00
2019-01-18T04:26:10.081Z,0.00
2019-01-18T04:27:10.028Z,0.00
2019-01-18T04:28:10.081Z,0.00
2019-01-18T04:29:10.008Z,0.00
2019-01-18T04:30:09.994Z,0.00
2019-01-18T04:31:10.000Z,0.00
2019-01-18T04:32:09.971Z,0.00
2019-01-18T04:33:09.959Z,0.00
2019-01-18T04:34:09.950Z,0.00
2019-01-18T04:35:09.939Z,0.00
2019-01-18T04:36:09.949Z,0.00
2019-01-18T04:37:09.914Z,0.00
2019-01-18T04:38:09.903Z,0.00
2019-01-18T04:39:09.892Z,0.00
2019-01-18T04:40:09.880Z,0.00
2019-01-18T04:41:09.888Z,0.00
2019-01-18T04:42:09.859Z,0.00
2019-01-18T04:43:09.846Z,0.00
2019-01-18T04:44:09.836Z,0.00
2019-01-18T04:45:09.828Z,0.00
2019-01-18T04:46:09.897Z,0.00
2019-01-18T04:47:09.807Z,0.00
2019-01-18T04:48:09.791Z,0.00
2019-01-18T04:49:09.780Z,0.00
2019-01-18T04:50:09.769Z,0.00
2019-01-18T04:51:09.761Z,0.00
2019-01-18T04:52:09.767Z,0.00
2019-01-18T04:53:09.738Z,0.00
2019-01-18T04:54:09.727Z,0.00
2019-01-18T04:55:09.712Z,0.00
2019-01-18T04:56:09.701Z,0.00
2019-01-18T04:57:09.710Z,0.00
2019-01-18T04:58:09.680Z,0.00
2019-01-18T04:59:09.670Z,0.00
2019-01-18T05:00:09.656Z,0.00
2019-01-18T05:01:09.649Z,0.00
2019-01-18T05:02:09.657Z,0.00
2019-01-18T05:03:18.839Z,0.00
2019-01-18T05:04:09.612Z,0.00
2019-01-18T05:05:09.602Z,0.00
2019-01-18T05:06:09.590Z,0.00
2019-01-18T05:07:09.600Z,0.00
2019-01-18T05:08:09.569Z,0.00
2019-01-18T05:09:09.556Z,0.00
2019-01-18T05:10:09.544Z,0.00
2019-01-18T05:11:09.534Z,0.00
2019-01-18T05:12:09.560Z,0.00
2019-01-18T05:13:09.511Z,0.00
2019-01-18T05:14:09.500Z,0.00
2019-01-18T05:15:18.741Z,0.00
2019-01-18T05:16:09.477Z,0.00
2019-01-18T05:17:09.468Z,0.00
2019-01-18T05:18:09.480Z,0.00
2019-01-18T05:19:09.443Z,0.00
2019-01-18T05:20:09.437Z,0.00
2019-01-18T05:21:09.427Z,0.00
2019-01-18T05:22:09.425Z,0.00
2019-01-18T05:23:09.419Z,0.00
2019-01-18T05:24:09.389Z,0.00
2019-01-18T05:25:09.379Z,0.00
2019-01-18T05:26:09.427Z,0.00
2019-01-18T05:27:09.394Z,0.00
2019-01-18T05:28:09.579Z,0.00
2019-01-18T05:29:09.383Z,0.00
2019-01-18T05:30:09.323Z,0.00
2019-01-18T05:31:17.590Z,0.00
2019-01-18T05:32:09.303Z,0.00
2019-01-18T05:33:09.313Z,0.00
2019-01-18T05:34:09.282Z,0.00
2019-01-18T05:35:09.268Z,0.00
2019-01-18T05:36:09.257Z,0.00
2019-01-18T05:37:09.246Z,0.00
2019-01-18T05:38:09.251Z,0.00
2019-01-18T05:39:09.220Z,0.00
2019-01-18T05:40:09.211Z,0.00
2019-01-18T05:41:09.198Z,0.00
2019-01-18T05:42:09.468Z,0.00
2019-01-18T05:43:09.214Z,0.00
2019-01-18T05:44:09.172Z,0.00
2019-01-18T05:45:09.155Z,0.00
2019-01-18T05:46:09.145Z,0.00
2019-01-18T05:47:17.373Z,0.00
2019-01-18T05:48:09.120Z,0.00
2019-01-18T05:49:09.135Z,0.00
2019-01-18T05:50:11.649Z,0.00
2019-01-18T05:51:09.090Z,0.00
2019-01-18T05:52:09.076Z,0.00
2019-01-18T05:53:09.064Z,0.00
2019-01-18T05:54:09.072Z,0.00
2019-01-18T05:55:09.041Z,0.00
2019-01-18T05:56:09.033Z,0.00
2019-01-18T05:57:09.019Z,0.00
2019-01-18T05:58:09.021Z,0.00
2019-01-18T05:59:09.017Z,0.00
2019-01-18T06:00:08.985Z,0.00
2019-01-18T06:01:08.977Z,0.00
2019-01-18T06:02:08.964Z,0.00
2019-01-18T06:03:08.956Z,0.00
2019-01-18T06:04:10.239Z,0.00
2019-01-18T06:05:08.929Z,0.00
2019-01-18T06:06:08.924Z,0.00
2019-01-18T06:07:08.912Z,0.00
2019-01-18T06:08:08.896Z,0.00
2019-01-18T06:09:08.906Z,0.00
2019-01-18T06:10:08.874Z,0.00
2019-01-18T06:11:08.864Z,0.00
2019-01-18T06:12:08.937Z,0.00
2019-01-18T06:13:08.884Z,0.00
2019-01-18T06:14:08.861Z,0.00
2019-01-18T06:15:08.818Z,0.00
2019-01-18T06:16:08.864Z,0.00
2019-01-18T06:17:08.799Z,0.00
2019-01-18T06:18:08.786Z,0.00
2019-01-18T06:19:08.775Z,0.00
2019-01-18T06:20:08.783Z,0.00
2019-01-18T06:21:08.751Z,0.00
2019-01-18T06:22:08.746Z,0.00
2019-01-18T06:23:08.736Z,0.00
2019-01-18T06:24:08.722Z,0.00
2019-01-18T06:25:08.827Z,0.00
2019-01-18T06:26:08.696Z,0.00
2019-01-18T06:27:08.685Z,0.00
2019-01-18T06:28:18.006Z,0.00
2019-01-18T06:29:08.662Z,0.00
2019-01-18T06:30:08.670Z,0.00
2019-01-18T06:31:08.642Z,0.00
2019-01-18T06:32:08.632Z,0.00
2019-01-18T06:33:08.617Z,0.00
2019-01-18T06:34:08.609Z,0.00
2019-01-18T06:35:08.627Z,0.00
2019-01-18T06:36:08.583Z,0.00
2019-01-18T06:37:08.576Z,0.00
2019-01-18T06:38:08.562Z,0.00
2019-01-18T06:39:08.550Z,0.00
2019-01-18T06:40:08.576Z,0.00
2019-01-18T06:41:08.528Z,0.00
2019-01-18T06:43:07.619Z,0.00
2019-01-18T06:44:07.606Z,0.00
2019-01-18T06:45:07.588Z,0.00
2019-01-18T06:46:07.597Z,0.00
2019-01-18T06:47:07.567Z,0.00
2019-01-18T06:48:07.555Z,0.00
2019-01-18T06:49:07.545Z,0.00
2019-01-18T06:50:07.537Z,0.00
2019-01-18T06:51:07.546Z,4.00
2019-01-18T06:52:07.512Z,4.00
2019-01-18T06:53:07.500Z,4.00
2019-01-18T06:54:07.489Z,0.00
2019-01-18T06:55:07.479Z,4.00
2019-01-18T06:56:07.487Z,0.00
2019-01-18T06:57:07.455Z,4.00
2019-01-18T06:58:07.450Z,4.00
2019-01-18T06:59:07.436Z,4.00
2019-01-18T07:00:07.422Z,4.00
2019-01-18T07:01:08.615Z,8.00
2019-01-18T07:02:07.413Z,8.00
2019-01-18T07:03:07.391Z,8.00
2019-01-18T07:04:07.380Z,8.00
2019-01-18T07:05:07.447Z,12.00
2019-01-18T07:06:07.377Z,12.00
2019-01-18T07:07:07.346Z,16.00
2019-01-18T07:08:07.336Z,16.00
2019-01-18T07:09:07.324Z,20.00
2019-01-18T07:10:07.315Z,24.00
2019-01-18T07:11:07.322Z,24.00
2019-01-18T07:12:07.291Z,32.00
2019-01-18T07:13:07.280Z,32.00
2019-01-18T07:14:07.275Z,36.00
2019-01-18T07:15:07.266Z,40.00
2019-01-18T07:16:07.285Z,44.00
2019-01-18T07:17:07.237Z,52.00
2019-01-18T07:18:07.225Z,52.00
2019-01-18T07:19:15.578Z,56.00
2019-01-18T07:20:07.222Z,68.00
2019-01-18T07:21:07.194Z,72.00
2019-01-18T07:22:07.203Z,76.00
2019-01-18T07:23:07.171Z,84.00
2019-01-18T07:24:07.159Z,88.00
2019-01-18T07:25:07.150Z,100.00
2019-01-18T07:26:07.140Z,108.00
2019-01-18T07:27:07.150Z,112.00
2019-01-18T07:28:07.115Z,124.00
2019-01-18T07:29:07.105Z,136.00
2019-01-18T07:30:07.094Z,144.00
2019-01-18T07:31:07.086Z,152.00
2019-01-18T07:32:07.152Z,164.00
2019-01-18T07:33:07.060Z,176.00
2019-01-18T07:34:07.051Z,188.00
2019-01-18T07:35:08.469Z,196.00
2019-01-18T07:36:07.034Z,208.00
2019-01-18T07:37:07.037Z,220.00
2019-01-18T07:38:07.006Z,232.00
2019-01-18T07:39:06.994Z,248.00
2019-01-18T07:40:06.984Z,260.00
2019-01-18T07:41:06.976Z,276.00
2019-01-18T07:42:06.982Z,292.00
2019-01-18T07:43:06.952Z,312.00
2019-01-18T07:44:06.940Z,328.00
2019-01-18T07:45:06.930Z,348.00
2019-01-18T07:46:06.960Z,372.00
2019-01-18T07:47:06.943Z,392.00
2019-01-18T07:48:06.900Z,412.00
2019-01-18T07:49:06.888Z,424.00
2019-01-18T07:50:06.877Z,440.00
2019-01-18T07:51:06.865Z,460.00
2019-01-18T07:52:06.854Z,496.00
2019-01-18T07:53:06.866Z,520.00
2019-01-18T07:54:06.832Z,540.00
2019-01-18T07:55:06.820Z,568.00
2019-01-18T07:56:06.814Z,592.00
2019-01-18T07:57:06.801Z,620.00
2019-01-18T07:58:06.807Z,660.00
2019-01-18T07:59:06.777Z,712.00
2019-01-18T08:00:06.765Z,756.00
2019-01-18T08:01:06.754Z,796.00
2019-01-18T08:02:06.756Z,840.00
2019-01-18T08:03:06.758Z,892.00
2019-01-18T08:04:06.721Z,952.00
2019-01-18T08:05:06.711Z,1016.00
2019-01-18T08:06:06.702Z,1084.00
2019-01-18T08:07:06.687Z,1124.00
2019-01-18T08:08:06.702Z,1164.00
2019-01-18T08:09:06.667Z,1196.00
2019-01-18T08:10:07.634Z,1236.00
2019-01-18T08:11:06.646Z,1284.00
2019-01-18T08:12:06.643Z,1336.00
2019-01-18T08:13:07.632Z,1376.00
2019-01-18T08:14:06.613Z,1440.00
2019-01-18T08:15:06.601Z,1512.00
2019-01-18T08:16:06.591Z,1576.00
2019-01-18T08:17:06.578Z,1664.00
2019-01-18T08:18:06.614Z,1760.00
2019-01-18T08:19:06.560Z,1840.00
2019-01-18T08:20:06.545Z,1940.00
2019-01-18T08:21:06.535Z,2056.00
2019-01-18T08:22:06.526Z,2196.00
2019-01-18T08:23:06.514Z,2300.00
2019-01-18T08:24:06.520Z,2444.00
2019-01-18T08:25:06.489Z,2572.00
2019-01-18T08:26:06.478Z,2672.00
2019-01-18T08:27:06.476Z,2748.00
2019-01-18T08:28:06.456Z,2852.00
2019-01-18T08:29:06.479Z,2996.00
2019-01-18T08:30:06.436Z,3176.00
2019-01-18T08:31:06.423Z,3344.00
2019-01-18T08:32:06.412Z,3484.00
2019-01-18T08:33:06.402Z,3636.00
2019-01-18T08:34:06.411Z,3820.00
2019-01-18T08:35:06.382Z,4036.00
2019-01-18T08:36:06.368Z,4208.00
2019-01-18T08:37:06.359Z,4396.00
2019-01-18T08:38:06.349Z,4716.00
2019-01-18T08:39:06.355Z,4956.00
2019-01-18T08:40:06.333Z,5220.00
2019-01-18T08:41:06.326Z,5504.00
2019-01-18T08:42:06.304Z,5872.00
2019-01-18T08:43:06.291Z,6232.00
2019-01-18T08:44:06.303Z,6620.00
2019-01-18T08:45:06.273Z,6896.00
2019-01-18T08:46:06.270Z,7116.00
2019-01-18T08:47:06.251Z,7208.00
2019-01-18T08:48:06.241Z,7344.00
2019-01-18T08:49:06.246Z,7460.00
2019-01-18T08:50:06.214Z,7480.00
2019-01-18T08:51:06.206Z,7452.00
2019-01-18T08:52:06.239Z,7608.00
2019-01-18T08:53:06.181Z,7696.00
2019-01-18T08:54:06.200Z,7652.00
2019-01-18T08:55:06.161Z,7788.00
2019-01-18T08:56:06.168Z,7936.00
2019-01-18T08:57:06.188Z,8196.00
2019-01-18T08:58:06.127Z,8436.00
2019-01-18T08:59:06.120Z,8440.00
2019-01-18T09:00:06.129Z,8400.00
2019-01-18T09:01:06.094Z,8320.00
2019-01-18T09:02:06.084Z,8520.00
2019-01-18T09:03:06.105Z,8408.00
2019-01-18T09:04:06.063Z,8192.00
2019-01-18T09:05:06.080Z,7832.00
2019-01-18T09:06:06.042Z,7436.00
2019-01-18T09:07:06.030Z,7032.00
2019-01-18T09:08:06.020Z,6528.00
2019-01-18T09:09:06.010Z,6044.00
2019-01-18T09:10:06.018Z,5516.00
2019-01-18T09:11:05.988Z,5084.00
2019-01-18T09:12:05.976Z,4752.00
2019-01-18T09:13:05.967Z,4584.00
2019-01-18T09:14:05.952Z,4644.00
2019-01-18T09:15:05.966Z,4764.00
2019-01-18T09:16:05.931Z,4992.00
2019-01-18T09:17:05.918Z,5420.00
2019-01-18T09:18:05.913Z,5944.00
2019-01-18T09:19:05.898Z,6524.00
2019-01-18T09:20:05.908Z,7164.00
2019-01-18T09:21:05.876Z,7972.00
2019-01-18T09:22:05.865Z,8788.00
2019-01-18T09:23:05.853Z,9248.00
2019-01-18T09:24:05.841Z,7840.00
2019-01-18T09:25:05.867Z,5884.00
2019-01-18T09:26:05.820Z,7080.00
2019-01-18T09:27:05.815Z,10708.00
2019-01-18T09:28:05.799Z,13376.00
2019-01-18T09:29:05.788Z,13760.00
2019-01-18T09:30:05.777Z,13792.00
2019-01-18T09:31:05.785Z,14080.00
2019-01-18T09:32:05.758Z,14240.00
2019-01-18T09:33:05.744Z,14400.00
2019-01-18T09:34:05.731Z,14400.00
2019-01-18T09:35:05.733Z,14496.00
2019-01-18T09:36:05.730Z,14528.00
2019-01-18T09:37:05.707Z,14560.00
2019-01-18T09:38:05.689Z,14816.00
2019-01-18T09:39:05.682Z,15200.00
2019-01-18T09:40:05.666Z,15360.00
2019-01-18T09:41:05.675Z,15424.00
2019-01-18T09:42:05.646Z,11396.00
2019-01-18T09:43:05.633Z,7964.00
2019-01-18T09:44:05.621Z,8476.00
2019-01-18T09:45:05.612Z,9952.00
2019-01-18T09:46:13.814Z,15008.00
2019-01-18T09:47:05.588Z,13792.00
2019-01-18T09:48:05.578Z,13440.00
2019-01-18T09:49:05.570Z,13920.00
2019-01-18T09:50:05.558Z,16000.00
2019-01-18T09:51:05.567Z,18752.00
2019-01-18T09:52:05.533Z,19104.00
2019-01-18T09:53:05.522Z,19712.00
2019-01-18T09:54:05.686Z,20416.00
2019-01-18T09:55:05.504Z,20384.00
2019-01-18T09:56:05.513Z,19968.00
2019-01-18T09:57:05.480Z,18912.00
2019-01-18T09:58:05.467Z,19520.00
2019-01-18T09:59:05.475Z,20192.00
2019-01-18T10:00:05.452Z,20512.00
2019-01-18T10:01:05.476Z,20864.00
2019-01-18T10:02:05.425Z,22176.00
2019-01-18T10:03:05.467Z,20800.00
2019-01-18T10:04:05.406Z,13440.00
2019-01-18T10:05:05.436Z,12116.00
2019-01-18T10:06:05.383Z,13312.00
2019-01-18T10:07:05.444Z,16256.00
2019-01-18T10:08:05.389Z,18624.00
2019-01-18T10:09:05.351Z,8512.00
2019-01-18T10:10:05.337Z,4736.00
2019-01-18T10:11:05.353Z,4316.00
2019-01-18T10:12:05.336Z,4616.00
2019-01-18T10:13:05.306Z,5640.00
2019-01-18T10:14:05.295Z,7480.00
2019-01-18T10:15:05.285Z,13696.00
2019-01-18T10:16:05.272Z,18176.00
2019-01-18T10:17:05.285Z,21120.00
2019-01-18T10:18:05.428Z,19776.00
2019-01-18T10:19:05.244Z,11972.00
2019-01-18T10:20:05.230Z,13116.00
2019-01-18T10:21:05.422Z,16896.00
2019-01-18T10:22:05.229Z,7232.00
2019-01-18T10:23:05.198Z,6760.00
2019-01-18T10:24:05.189Z,7660.00
2019-01-18T10:25:05.224Z,10252.00
2019-01-18T10:26:05.166Z,12840.00
2019-01-18T10:27:05.184Z,6468.00
2019-01-18T10:28:05.147Z,6216.00
2019-01-18T10:29:05.134Z,5700.00
2019-01-18T10:30:05.124Z,4828.00
2019-01-18T10:31:05.111Z,4620.00
2019-01-18T10:32:05.195Z,4628.00
2019-01-18T10:33:05.095Z,4280.00
2019-01-18T10:34:05.080Z,3964.00
2019-01-18T10:35:05.065Z,4116.00
2019-01-18T10:36:05.061Z,4964.00
2019-01-18T10:37:05.054Z,9236.00
2019-01-18T10:38:05.061Z,10408.00
2019-01-18T10:39:05.022Z,7076.00
2019-01-18T10:40:05.015Z,6928.00
2019-01-18T10:41:05.001Z,6264.00
2019-01-18T10:42:04.993Z,8124.00
2019-01-18T10:43:05.002Z,15648.00
2019-01-18T10:44:06.022Z,8912.00
2019-01-18T10:45:04.957Z,6808.00
2019-01-18T10:46:04.945Z,5780.00
2019-01-18T10:47:04.934Z,5960.00
2019-01-18T10:48:04.944Z,5400.00
2019-01-18T10:49:04.911Z,5232.00
2019-01-18T10:50:04.902Z,7336.00
2019-01-18T10:51:04.891Z,8672.00
2019-01-18T10:52:04.953Z,5964.00
2019-01-18T10:53:04.921Z,5488.00
2019-01-18T10:54:04.857Z,5972.00
2019-01-18T10:55:04.846Z,7240.00
2019-01-18T10:56:04.834Z,7460.00
2019-01-18T10:57:04.825Z,13792.00
2019-01-18T10:58:04.834Z,15424.00
2019-01-18T10:59:04.803Z,15552.00
2019-01-18T11:00:04.804Z,15040.00
2019-01-18T11:01:04.783Z,14240.00
2019-01-18T11:02:07.298Z,15712.00
2019-01-18T11:03:04.782Z,17024.00
2019-01-18T11:04:04.749Z,16928.00
2019-01-18T11:05:04.739Z,15680.00
2019-01-18T11:06:04.726Z,13572.00
2019-01-18T11:07:04.712Z,11444.00
2019-01-18T11:08:04.721Z,10448.00
2019-01-18T11:09:04.694Z,9136.00
2019-01-18T11:10:04.711Z,7932.00
2019-01-18T11:11:04.668Z,6816.00
2019-01-18T11:12:04.658Z,6064.00
2019-01-18T11:13:04.666Z,5528.00
2019-01-18T11:14:04.636Z,5080.00
2019-01-18T11:15:12.874Z,4772.00
2019-01-18T11:16:04.612Z,5048.00
2019-01-18T11:17:12.892Z,5524.00
2019-01-18T11:18:04.626Z,6200.00
2019-01-18T11:19:04.746Z,6664.00
2019-01-18T11:20:04.669Z,7060.00
2019-01-18T11:21:04.565Z,6868.00
2019-01-18T11:22:04.619Z,6332.00
2019-01-18T11:23:04.536Z,5412.00
2019-01-18T11:24:04.546Z,4736.00
2019-01-18T11:25:04.512Z,4292.00
2019-01-18T11:26:04.502Z,3976.00
2019-01-18T11:27:04.496Z,4164.00
2019-01-18T11:28:04.483Z,4092.00
2019-01-18T11:29:04.493Z,4596.00
2019-01-18T11:30:04.465Z,7472.00
2019-01-18T11:31:04.448Z,8956.00
2019-01-18T11:32:04.436Z,10120.00
2019-01-18T11:33:04.427Z,11104.00
2019-01-18T11:34:04.433Z,11956.00
2019-01-18T11:35:04.408Z,12444.00
2019-01-18T11:36:04.394Z,12920.00
2019-01-18T11:37:04.398Z,13392.00
2019-01-18T11:38:04.373Z,14240.00
2019-01-18T11:39:04.572Z,14848.00
2019-01-18T11:40:04.350Z,15360.00
2019-01-18T11:41:04.342Z,15136.00
2019-01-18T11:42:05.436Z,15488.00
2019-01-18T11:43:04.314Z,16064.00
2019-01-18T11:44:04.323Z,15904.00
2019-01-18T11:45:04.293Z,16256.00
2019-01-18T11:46:04.283Z,15424.00
2019-01-18T11:47:04.276Z,14240.00
2019-01-18T11:48:04.260Z,14048.00
2019-01-18T11:49:04.268Z,13184.00
2019-01-18T11:50:04.240Z,6332.00
2019-01-18T11:51:04.226Z,7916.00
2019-01-18T11:52:04.215Z,3416.00
2019-01-18T11:53:04.204Z,3028.00
2019-01-18T11:54:04.215Z,3036.00
2019-01-18T11:55:04.182Z,3256.00
2019-01-18T11:56:04.172Z,3440.00
2019-01-18T11:57:04.160Z,4140.00
2019-01-18T11:58:04.150Z,8448.00
2019-01-18T11:59:04.160Z,17536.00
2019-01-18T12:00:04.129Z,13164.00
2019-01-18T12:01:04.116Z,5320.00
2019-01-18T12:02:04.106Z,4552.00
2019-01-18T12:03:04.095Z,5652.00
2019-01-18T12:04:04.102Z,7504.00
2019-01-18T12:05:04.072Z,4260.00
2019-01-18T12:06:04.060Z,3780.00
2019-01-18T12:07:04.052Z,3476.00
2019-01-18T12:08:04.042Z,3608.00
2019-01-18T12:09:04.046Z,3752.00
2019-01-18T12:10:04.018Z,3708.00
2019-01-18T12:11:04.005Z,3644.00
2019-01-18T12:12:03.994Z,3724.00
2019-01-18T12:13:03.983Z,4112.00
2019-01-18T12:14:04.016Z,5080.00
2019-01-18T12:15:03.973Z,4944.00
2019-01-18T12:16:03.950Z,4620.00
2019-01-18T12:17:03.943Z,4216.00
2019-01-18T12:18:03.928Z,4100.00
2019-01-18T12:19:03.918Z,3888.00
2019-01-18T12:20:03.925Z,4080.00
2019-01-18T12:21:03.900Z,3812.00
2019-01-18T12:22:03.886Z,3748.00
2019-01-18T12:23:03.884Z,4808.00
2019-01-18T12:24:03.861Z,11988.00
2019-01-18T12:25:03.870Z,27104.00
2019-01-18T12:26:03.845Z,24288.00
2019-01-18T12:27:03.828Z,20832.00
2019-01-18T12:28:03.819Z,26048.00
2019-01-18T12:29:03.810Z,28352.00
2019-01-18T12:30:03.816Z,28672.00
2019-01-18T12:31:03.789Z,28736.00
2019-01-18T12:32:03.774Z,29568.00
2019-01-18T12:33:03.762Z,31648.00
2019-01-18T12:34:03.756Z,28544.00
2019-01-18T12:35:03.763Z,24544.00
2019-01-18T12:36:03.730Z,24992.00
2019-01-18T12:37:03.720Z,28416.00
2019-01-18T12:38:03.709Z,30560.00
2019-01-18T12:39:03.705Z,32032.00
2019-01-18T12:40:03.705Z,31680.00
2019-01-18T12:41:03.677Z,31840.00
2019-01-18T12:42:03.739Z,31680.00
2019-01-18T12:43:03.652Z,30400.00
2019-01-18T12:44:03.649Z,6128.00